sensor_id;sensor_type;location;lat;lon;timestamp;P1;durP1;ratioP1;P2;durP2;ratioP2
72406;SDS011;60396;47.550;18.828;2023-01-29T00:00:04;33.13;;;13.02;;
72406;SDS011;60396;47.550;18.828;2023-01-29T00:02:38;34.87;;;14.63;;
72406;SDS011;60396;47.550;18.828;2023-01-29T00:05:06;35.35;;;14.77;;
72406;SDS011;60396;47.550;18.828;2023-01-29T00:07:54;34.08;;;13.52;;
72406;SDS011;60396;47.550;18.828;2023-01-29T00:10:23;35.15;;;14.27;;
72406;SDS011;60396;47.550;18.828;2023-01-29T00:12:51;34.58;;;13.88;;
72406;SDS011;60396;47.550;18.828;2023-01-29T00:15:19;34.30;;;14.20;;
72406;SDS011;60396;47.550;18.828;2023-01-29T00:17:47;33.80;;;13.95;;
72406;SDS011;60396;47.550;18.828;2023-01-29T00:20:15;32.15;;;14.13;;
72406;SDS011;60396;47.550;18.828;2023-01-29T00:22:43;34.97;;;13.62;;
72406;SDS011;60396;47.550;18.828;2023-01-29T00:25:11;33.72;;;14.32;;
72406;SDS011;60396;47.550;18.828;2023-01-29T00:27:39;32.80;;;14.13;;
72406;SDS011;60396;47.550;18.828;2023-01-29T00:30:07;29.67;;;13.52;;
72406;SDS011;60396;47.550;18.828;2023-01-29T00:32:43;38.13;;;14.07;;
72406;SDS011;60396;47.550;18.828;2023-01-29T00:35:11;31.10;;;13.73;;
72406;SDS011;60396;47.550;18.828;2023-01-29T00:37:39;34.28;;;13.75;;
72406;SDS011;60396;47.550;18.828;2023-01-29T00:40:08;33.63;;;13.50;;
72406;SDS011;60396;47.550;18.828;2023-01-29T00:42:36;34.65;;;14.75;;
72406;SDS011;60396;47.550;18.828;2023-01-29T00:45:22;31.45;;;13.38;;
72406;SDS011;60396;47.550;18.828;2023-01-29T00:47:50;32.95;;;13.70;;
72406;SDS011;60396;47.550;18.828;2023-01-29T00:50:18;34.97;;;13.80;;
72406;SDS011;60396;47.550;18.828;2023-01-29T00:52:46;33.50;;;13.67;;
72406;SDS011;60396;47.550;18.828;2023-01-29T00:55:21;35.38;;;13.57;;
72406;SDS011;60396;47.550;18.828;2023-01-29T00:57:50;30.48;;;13.32;;
72406;SDS011;60396;47.550;18.828;2023-01-29T01:00:18;33.10;;;13.88;;
72406;SDS011;60396;47.550;18.828;2023-01-29T01:02:46;33.35;;;14.05;;
72406;SDS011;60396;47.550;18.828;2023-01-29T01:05:32;34.03;;;13.30;;
72406;SDS011;60396;47.550;18.828;2023-01-29T01:08:00;32.92;;;13.40;;
72406;SDS011;60396;47.550;18.828;2023-01-29T01:10:29;35.85;;;13.70;;
72406;SDS011;60396;47.550;18.828;2023-01-29T01:12:59;33.70;;;14.75;;
72406;SDS011;60396;47.550;18.828;2023-01-29T01:15:29;31.25;;;13.20;;
72406;SDS011;60396;47.550;18.828;2023-01-29T01:18:00;32.97;;;13.97;;
72406;SDS011;60396;47.550;18.828;2023-01-29T01:20:30;32.17;;;14.15;;
72406;SDS011;60396;47.550;18.828;2023-01-29T01:22:59;32.45;;;13.85;;
72406;SDS011;60396;47.550;18.828;2023-01-29T01:25:27;30.75;;;12.80;;
72406;SDS011;60396;47.550;18.828;2023-01-29T01:27:56;31.70;;;13.52;;
72406;SDS011;60396;47.550;18.828;2023-01-29T01:30:24;36.47;;;14.00;;
72406;SDS011;60396;47.550;18.828;2023-01-29T01:32:52;33.10;;;14.05;;
72406;SDS011;60396;47.550;18.828;2023-01-29T01:35:20;36.72;;;14.50;;
72406;SDS011;60396;47.550;18.828;2023-01-29T01:37:48;35.05;;;14.18;;
72406;SDS011;60396;47.550;18.828;2023-01-29T01:40:17;31.95;;;13.05;;
72406;SDS011;60396;47.550;18.828;2023-01-29T01:42:53;31.10;;;12.73;;
72406;SDS011;60396;47.550;18.828;2023-01-29T01:45:35;28.60;;;13.00;;
72406;SDS011;60396;47.550;18.828;2023-01-29T01:48:04;32.45;;;12.80;;
72406;SDS011;60396;47.550;18.828;2023-01-29T01:50:56;30.15;;;13.75;;
72406;SDS011;60396;47.550;18.828;2023-01-29T01:53:28;29.30;;;12.80;;
72406;SDS011;60396;47.550;18.828;2023-01-29T01:56:01;29.27;;;13.07;;
72406;SDS011;60396;47.550;18.828;2023-01-29T01:58:32;35.22;;;12.95;;
72406;SDS011;60396;47.550;18.828;2023-01-29T02:01:03;34.58;;;12.52;;
72406;SDS011;60396;47.550;18.828;2023-01-29T02:03:38;29.17;;;11.68;;
72406;SDS011;60396;47.550;18.828;2023-01-29T02:06:27;28.87;;;12.02;;
72406;SDS011;60396;47.550;18.828;2023-01-29T02:09:19;32.20;;;12.67;;
72406;SDS011;60396;47.550;18.828;2023-01-29T02:12:04;25.27;;;10.70;;
72406;SDS011;60396;47.550;18.828;2023-01-29T02:14:34;27.87;;;11.32;;
72406;SDS011;60396;47.550;18.828;2023-01-29T02:17:15;31.73;;;12.10;;
72406;SDS011;60396;47.550;18.828;2023-01-29T02:30:56;26.95;;;10.50;;
72406;SDS011;60396;47.550;18.828;2023-01-29T02:38:49;23.80;;;10.23;;
72406;SDS011;60396;47.550;18.828;2023-01-29T02:41:37;26.73;;;9.88;;
72406;SDS011;60396;47.550;18.828;2023-01-29T02:46:59;26.10;;;10.98;;
72406;SDS011;60396;47.550;18.828;2023-01-29T02:49:34;26.57;;;9.97;;
72406;SDS011;60396;47.550;18.828;2023-01-29T02:52:17;23.42;;;9.93;;
72406;SDS011;60396;47.550;18.828;2023-01-29T02:55:03;23.08;;;9.52;;
72406;SDS011;60396;47.550;18.828;2023-01-29T02:57:38;27.08;;;10.05;;
72406;SDS011;60396;47.550;18.828;2023-01-29T03:00:10;25.88;;;10.27;;
72406;SDS011;60396;47.550;18.828;2023-01-29T03:05:08;24.42;;;10.43;;
72406;SDS011;60396;47.550;18.828;2023-01-29T03:07:40;25.73;;;10.20;;
72406;SDS011;60396;47.550;18.828;2023-01-29T03:10:24;27.55;;;9.98;;
72406;SDS011;60396;47.550;18.828;2023-01-29T03:15:50;24.33;;;9.43;;
72406;SDS011;60396;47.550;18.828;2023-01-29T03:18:30;23.95;;;8.57;;
72406;SDS011;60396;47.550;18.828;2023-01-29T03:21:02;21.12;;;8.65;;
72406;SDS011;60396;47.550;18.828;2023-01-29T03:23:53;25.25;;;9.27;;
72406;SDS011;60396;47.550;18.828;2023-01-29T03:26:40;25.00;;;8.70;;
72406;SDS011;60396;47.550;18.828;2023-01-29T03:29:30;23.13;;;8.67;;
72406;SDS011;60396;47.550;18.828;2023-01-29T03:32:17;23.17;;;8.52;;
72406;SDS011;60396;47.550;18.828;2023-01-29T03:34:47;19.58;;;7.35;;
72406;SDS011;60396;47.550;18.828;2023-01-29T03:37:26;20.45;;;7.55;;
72406;SDS011;60396;47.550;18.828;2023-01-29T03:39:56;21.67;;;8.50;;
72406;SDS011;60396;47.550;18.828;2023-01-29T03:42:41;21.73;;;8.90;;
72406;SDS011;60396;47.550;18.828;2023-01-29T03:47:43;25.85;;;8.27;;
72406;SDS011;60396;47.550;18.828;2023-01-29T03:52:48;19.85;;;7.30;;
72406;SDS011;60396;47.550;18.828;2023-01-29T03:58:14;22.77;;;8.65;;
72406;SDS011;60396;47.550;18.828;2023-01-29T04:01:35;21.70;;;8.80;;
72406;SDS011;60396;47.550;18.828;2023-01-29T04:03:57;23.75;;;8.20;;
72406;SDS011;60396;47.550;18.828;2023-01-29T04:06:31;20.05;;;7.93;;
72406;SDS011;60396;47.550;18.828;2023-01-29T04:09:10;22.93;;;8.77;;
72406;SDS011;60396;47.550;18.828;2023-01-29T04:11:42;19.92;;;7.55;;
72406;SDS011;60396;47.550;18.828;2023-01-29T04:14:13;21.83;;;8.75;;
72406;SDS011;60396;47.550;18.828;2023-01-29T04:16:43;19.55;;;8.27;;
72406;SDS011;60396;47.550;18.828;2023-01-29T04:19:14;22.10;;;8.77;;
72406;SDS011;60396;47.550;18.828;2023-01-29T04:21:42;23.97;;;8.00;;
72406;SDS011;60396;47.550;18.828;2023-01-29T04:24:12;26.17;;;8.52;;
72406;SDS011;60396;47.550;18.828;2023-01-29T04:29:24;21.42;;;9.13;;
72406;SDS011;60396;47.550;18.828;2023-01-29T04:34:32;22.03;;;8.53;;
72406;SDS011;60396;47.550;18.828;2023-01-29T04:37:10;21.92;;;8.45;;
72406;SDS011;60396;47.550;18.828;2023-01-29T04:42:24;21.55;;;8.88;;
72406;SDS011;60396;47.550;18.828;2023-01-29T04:53:30;22.10;;;9.07;;
72406;SDS011;60396;47.550;18.828;2023-01-29T04:58:52;22.90;;;8.57;;
72406;SDS011;60396;47.550;18.828;2023-01-29T05:01:23;24.47;;;8.13;;
72406;SDS011;60396;47.550;18.828;2023-01-29T05:03:56;24.90;;;9.07;;
72406;SDS011;60396;47.550;18.828;2023-01-29T05:06:24;23.10;;;8.20;;
72406;SDS011;60396;47.550;18.828;2023-01-29T05:08:52;20.73;;;8.63;;
72406;SDS011;60396;47.550;18.828;2023-01-29T05:11:22;22.52;;;8.70;;
72406;SDS011;60396;47.550;18.828;2023-01-29T05:13:51;23.70;;;8.13;;
72406;SDS011;60396;47.550;18.828;2023-01-29T05:16:20;19.85;;;8.20;;
72406;SDS011;60396;47.550;18.828;2023-01-29T05:18:50;17.27;;;7.85;;
72406;SDS011;60396;47.550;18.828;2023-01-29T05:21:18;22.95;;;8.73;;
72406;SDS011;60396;47.550;18.828;2023-01-29T05:23:46;18.05;;;8.05;;
72406;SDS011;60396;47.550;18.828;2023-01-29T05:26:33;17.40;;;7.83;;
72406;SDS011;60396;47.550;18.828;2023-01-29T05:29:19;18.17;;;7.57;;
72406;SDS011;60396;47.550;18.828;2023-01-29T05:31:48;18.87;;;8.30;;
72406;SDS011;60396;47.550;18.828;2023-01-29T05:34:16;18.35;;;7.50;;
72406;SDS011;60396;47.550;18.828;2023-01-29T05:36:43;17.45;;;7.37;;
72406;SDS011;60396;47.550;18.828;2023-01-29T05:39:11;22.30;;;9.37;;
72406;SDS011;60396;47.550;18.828;2023-01-29T05:41:39;19.12;;;8.15;;
72406;SDS011;60396;47.550;18.828;2023-01-29T05:44:08;18.77;;;7.57;;
72406;SDS011;60396;47.550;18.828;2023-01-29T05:46:36;18.42;;;7.57;;
72406;SDS011;60396;47.550;18.828;2023-01-29T05:49:05;18.48;;;7.82;;
72406;SDS011;60396;47.550;18.828;2023-01-29T05:51:32;17.80;;;7.43;;
72406;SDS011;60396;47.550;18.828;2023-01-29T05:54:00;17.33;;;7.22;;
72406;SDS011;60396;47.550;18.828;2023-01-29T05:56:28;17.35;;;7.10;;
72406;SDS011;60396;47.550;18.828;2023-01-29T05:58:55;18.75;;;7.55;;
72406;SDS011;60396;47.550;18.828;2023-01-29T06:01:24;16.70;;;6.93;;
72406;SDS011;60396;47.550;18.828;2023-01-29T06:03:53;18.97;;;8.20;;
72406;SDS011;60396;47.550;18.828;2023-01-29T06:06:20;16.55;;;6.55;;
72406;SDS011;60396;47.550;18.828;2023-01-29T06:08:48;19.23;;;7.25;;
72406;SDS011;60396;47.550;18.828;2023-01-29T06:11:16;14.87;;;6.62;;
72406;SDS011;60396;47.550;18.828;2023-01-29T06:13:48;16.60;;;7.40;;
72406;SDS011;60396;47.550;18.828;2023-01-29T06:16:16;15.27;;;7.57;;
72406;SDS011;60396;47.550;18.828;2023-01-29T06:18:44;16.42;;;7.12;;
72406;SDS011;60396;47.550;18.828;2023-01-29T06:21:12;19.83;;;8.13;;
72406;SDS011;60396;47.550;18.828;2023-01-29T06:23:40;15.23;;;6.45;;
72406;SDS011;60396;47.550;18.828;2023-01-29T06:26:09;15.35;;;6.15;;
72406;SDS011;60396;47.550;18.828;2023-01-29T06:28:39;18.47;;;7.40;;
72406;SDS011;60396;47.550;18.828;2023-01-29T06:31:07;16.48;;;6.72;;
72406;SDS011;60396;47.550;18.828;2023-01-29T06:33:55;16.60;;;6.75;;
72406;SDS011;60396;47.550;18.828;2023-01-29T06:36:23;15.18;;;6.45;;
72406;SDS011;60396;47.550;18.828;2023-01-29T06:38:50;19.40;;;7.37;;
72406;SDS011;60396;47.550;18.828;2023-01-29T06:41:18;15.53;;;6.03;;
72406;SDS011;60396;47.550;18.828;2023-01-29T06:43:51;16.23;;;6.82;;
72406;SDS011;60396;47.550;18.828;2023-01-29T06:46:19;16.37;;;6.28;;
72406;SDS011;60396;47.550;18.828;2023-01-29T06:48:46;15.15;;;6.30;;
72406;SDS011;60396;47.550;18.828;2023-01-29T06:51:14;15.00;;;5.35;;
72406;SDS011;60396;47.550;18.828;2023-01-29T06:53:42;14.33;;;6.10;;
72406;SDS011;60396;47.550;18.828;2023-01-29T06:56:12;13.65;;;5.65;;
72406;SDS011;60396;47.550;18.828;2023-01-29T06:58:40;13.60;;;5.45;;
72406;SDS011;60396;47.550;18.828;2023-01-29T07:01:10;14.07;;;5.40;;
72406;SDS011;60396;47.550;18.828;2023-01-29T07:03:49;13.05;;;5.35;;
72406;SDS011;60396;47.550;18.828;2023-01-29T07:06:17;16.63;;;6.27;;
72406;SDS011;60396;47.550;18.828;2023-01-29T07:08:45;15.35;;;6.40;;
72406;SDS011;60396;47.550;18.828;2023-01-29T07:11:13;15.77;;;5.95;;
72406;SDS011;60396;47.550;18.828;2023-01-29T07:13:41;14.50;;;6.07;;
72406;SDS011;60396;47.550;18.828;2023-01-29T07:16:08;15.88;;;5.90;;
72406;SDS011;60396;47.550;18.828;2023-01-29T07:18:36;14.07;;;5.27;;
72406;SDS011;60396;47.550;18.828;2023-01-29T07:21:04;14.30;;;6.07;;
72406;SDS011;60396;47.550;18.828;2023-01-29T07:23:33;13.62;;;5.25;;
72406;SDS011;60396;47.550;18.828;2023-01-29T07:26:04;13.68;;;5.70;;
72406;SDS011;60396;47.550;18.828;2023-01-29T07:28:36;15.13;;;5.25;;
72406;SDS011;60396;47.550;18.828;2023-01-29T07:31:05;16.10;;;5.97;;
72406;SDS011;60396;47.550;18.828;2023-01-29T07:33:33;16.85;;;6.62;;
72406;SDS011;60396;47.550;18.828;2023-01-29T07:36:01;14.20;;;5.18;;
72406;SDS011;60396;47.550;18.828;2023-01-29T07:38:29;14.70;;;5.72;;
72406;SDS011;60396;47.550;18.828;2023-01-29T07:40:57;15.30;;;5.75;;
72406;SDS011;60396;47.550;18.828;2023-01-29T07:43:24;14.27;;;5.83;;
72406;SDS011;60396;47.550;18.828;2023-01-29T07:45:52;15.07;;;5.93;;
72406;SDS011;60396;47.550;18.828;2023-01-29T07:48:20;13.45;;;5.12;;
72406;SDS011;60396;47.550;18.828;2023-01-29T07:50:54;12.93;;;5.10;;
72406;SDS011;60396;47.550;18.828;2023-01-29T07:53:23;13.88;;;5.25;;
72406;SDS011;60396;47.550;18.828;2023-01-29T07:55:51;14.33;;;5.93;;
72406;SDS011;60396;47.550;18.828;2023-01-29T07:58:18;13.10;;;5.00;;
72406;SDS011;60396;47.550;18.828;2023-01-29T08:00:46;13.68;;;4.97;;
72406;SDS011;60396;47.550;18.828;2023-01-29T08:03:15;13.82;;;5.12;;
72406;SDS011;60396;47.550;18.828;2023-01-29T08:08:52;14.43;;;5.00;;
72406;SDS011;60396;47.550;18.828;2023-01-29T08:11:22;11.45;;;4.47;;
72406;SDS011;60396;47.550;18.828;2023-01-29T08:13:49;13.02;;;4.37;;
72406;SDS011;60396;47.550;18.828;2023-01-29T08:16:17;12.13;;;4.57;;
72406;SDS011;60396;47.550;18.828;2023-01-29T08:18:45;12.95;;;4.62;;
72406;SDS011;60396;47.550;18.828;2023-01-29T08:21:14;12.70;;;4.10;;
72406;SDS011;60396;47.550;18.828;2023-01-29T08:23:42;12.88;;;5.15;;
72406;SDS011;60396;47.550;18.828;2023-01-29T08:26:10;10.38;;;4.12;;
72406;SDS011;60396;47.550;18.828;2023-01-29T08:28:38;11.65;;;4.60;;
72406;SDS011;60396;47.550;18.828;2023-01-29T08:31:11;12.93;;;4.57;;
72406;SDS011;60396;47.550;18.828;2023-01-29T08:33:40;10.77;;;4.23;;
72406;SDS011;60396;47.550;18.828;2023-01-29T08:36:08;12.90;;;4.60;;
72406;SDS011;60396;47.550;18.828;2023-01-29T08:38:36;13.52;;;4.62;;
72406;SDS011;60396;47.550;18.828;2023-01-29T08:41:04;10.23;;;4.43;;
72406;SDS011;60396;47.550;18.828;2023-01-29T08:43:33;11.30;;;4.25;;
72406;SDS011;60396;47.550;18.828;2023-01-29T08:46:03;9.97;;;3.60;;
72406;SDS011;60396;47.550;18.828;2023-01-29T08:48:32;11.18;;;3.92;;
72406;SDS011;60396;47.550;18.828;2023-01-29T08:51:01;11.75;;;4.10;;
72406;SDS011;60396;47.550;18.828;2023-01-29T08:53:29;11.88;;;4.32;;
72406;SDS011;60396;47.550;18.828;2023-01-29T08:55:58;12.57;;;4.60;;
72406;SDS011;60396;47.550;18.828;2023-01-29T08:58:25;12.57;;;4.03;;
72406;SDS011;60396;47.550;18.828;2023-01-29T09:00:53;11.32;;;4.00;;
72406;SDS011;60396;47.550;18.828;2023-01-29T09:03:21;13.02;;;4.53;;
72406;SDS011;60396;47.550;18.828;2023-01-29T09:05:49;11.73;;;4.28;;
72406;SDS011;60396;47.550;18.828;2023-01-29T09:08:16;12.73;;;4.28;;
72406;SDS011;60396;47.550;18.828;2023-01-29T09:10:44;11.40;;;4.20;;
72406;SDS011;60396;47.550;18.828;2023-01-29T09:13:12;11.12;;;3.72;;
72406;SDS011;60396;47.550;18.828;2023-01-29T09:15:40;11.25;;;3.72;;
72406;SDS011;60396;47.550;18.828;2023-01-29T09:18:07;11.43;;;4.43;;
72406;SDS011;60396;47.550;18.828;2023-01-29T09:20:35;9.57;;;3.72;;
72406;SDS011;60396;47.550;18.828;2023-01-29T09:23:05;8.67;;;3.40;;
72406;SDS011;60396;47.550;18.828;2023-01-29T09:25:36;11.07;;;4.00;;
72406;SDS011;60396;47.550;18.828;2023-01-29T09:28:04;9.75;;;3.58;;
72406;SDS011;60396;47.550;18.828;2023-01-29T09:30:33;10.80;;;3.72;;
72406;SDS011;60396;47.550;18.828;2023-01-29T09:33:04;11.20;;;4.20;;
72406;SDS011;60396;47.550;18.828;2023-01-29T09:35:32;11.83;;;4.50;;
72406;SDS011;60396;47.550;18.828;2023-01-29T09:38:00;12.30;;;4.05;;
72406;SDS011;60396;47.550;18.828;2023-01-29T09:40:37;11.20;;;4.30;;
72406;SDS011;60396;47.550;18.828;2023-01-29T09:43:15;10.90;;;3.42;;
72406;SDS011;60396;47.550;18.828;2023-01-29T09:45:50;10.88;;;4.25;;
72406;SDS011;60396;47.550;18.828;2023-01-29T09:48:20;11.03;;;4.03;;
72406;SDS011;60396;47.550;18.828;2023-01-29T09:50:50;11.93;;;3.92;;
72406;SDS011;60396;47.550;18.828;2023-01-29T09:53:39;10.20;;;3.97;;
72406;SDS011;60396;47.550;18.828;2023-01-29T09:56:16;10.25;;;3.58;;
72406;SDS011;60396;47.550;18.828;2023-01-29T09:58:47;9.85;;;3.47;;
72406;SDS011;60396;47.550;18.828;2023-01-29T10:06:48;9.32;;;3.35;;
72406;SDS011;60396;47.550;18.828;2023-01-29T10:17:56;11.05;;;3.80;;
72406;SDS011;60396;47.550;18.828;2023-01-29T10:23:28;13.98;;;5.12;;
72406;SDS011;60396;47.550;18.828;2023-01-29T10:25:59;10.18;;;3.08;;
72406;SDS011;60396;47.550;18.828;2023-01-29T10:30:59;10.85;;;4.35;;
72406;SDS011;60396;47.550;18.828;2023-01-29T10:33:41;7.85;;;3.20;;
72406;SDS011;60396;47.550;18.828;2023-01-29T10:36:21;11.35;;;3.50;;
72406;SDS011;60396;47.550;18.828;2023-01-29T10:38:53;8.90;;;3.37;;
72406;SDS011;60396;47.550;18.828;2023-01-29T10:49:29;11.00;;;3.92;;
72406;SDS011;60396;47.550;18.828;2023-01-29T11:00:25;13.15;;;4.60;;
72406;SDS011;60396;47.550;18.828;2023-01-29T11:02:56;10.35;;;4.00;;
72406;SDS011;60396;47.550;18.828;2023-01-29T11:09:04;11.13;;;4.10;;
72406;SDS011;60396;47.550;18.828;2023-01-29T11:14:28;11.90;;;4.65;;
72406;SDS011;60396;47.550;18.828;2023-01-29T11:16:58;9.77;;;3.47;;
72406;SDS011;60396;47.550;18.828;2023-01-29T11:20:00;10.43;;;4.55;;
72406;SDS011;60396;47.550;18.828;2023-01-29T11:22:24;11.27;;;4.63;;
72406;SDS011;60396;47.550;18.828;2023-01-29T11:25:07;13.80;;;4.55;;
72406;SDS011;60396;47.550;18.828;2023-01-29T11:27:48;12.65;;;4.80;;
72406;SDS011;60396;47.550;18.828;2023-01-29T11:30:23;10.40;;;3.53;;
72406;SDS011;60396;47.550;18.828;2023-01-29T11:35:38;10.03;;;3.67;;
72406;SDS011;60396;47.550;18.828;2023-01-29T11:38:08;13.23;;;3.12;;
72406;SDS011;60396;47.550;18.828;2023-01-29T11:40:44;10.07;;;3.22;;
72406;SDS011;60396;47.550;18.828;2023-01-29T11:45:56;9.77;;;4.03;;
72406;SDS011;60396;47.550;18.828;2023-01-29T11:51:22;7.72;;;2.97;;
72406;SDS011;60396;47.550;18.828;2023-01-29T11:53:55;8.40;;;3.05;;
72406;SDS011;60396;47.550;18.828;2023-01-29T11:58:56;10.68;;;3.65;;
72406;SDS011;60396;47.550;18.828;2023-01-29T12:01:42;9.80;;;3.30;;
72406;SDS011;60396;47.550;18.828;2023-01-29T12:04:14;11.48;;;3.67;;
72406;SDS011;60396;47.550;18.828;2023-01-29T12:06:44;14.43;;;3.78;;
72406;SDS011;60396;47.550;18.828;2023-01-29T12:09:16;8.77;;;3.25;;
72406;SDS011;60396;47.550;18.828;2023-01-29T12:11:46;9.75;;;3.75;;
72406;SDS011;60396;47.550;18.828;2023-01-29T12:14:30;7.43;;;3.00;;
72406;SDS011;60396;47.550;18.828;2023-01-29T12:17:07;9.00;;;3.58;;
72406;SDS011;60396;47.550;18.828;2023-01-29T12:19:52;8.70;;;3.22;;
72406;SDS011;60396;47.550;18.828;2023-01-29T12:22:44;10.75;;;3.60;;
72406;SDS011;60396;47.550;18.828;2023-01-29T12:28:12;9.43;;;3.43;;
72406;SDS011;60396;47.550;18.828;2023-01-29T12:36:20;9.57;;;3.25;;
72406;SDS011;60396;47.550;18.828;2023-01-29T12:38:52;10.10;;;4.18;;
72406;SDS011;60396;47.550;18.828;2023-01-29T12:47:13;9.98;;;3.40;;
72406;SDS011;60396;47.550;18.828;2023-01-29T12:49:49;8.18;;;3.53;;
72406;SDS011;60396;47.550;18.828;2023-01-29T12:52:22;12.32;;;4.00;;
72406;SDS011;60396;47.550;18.828;2023-01-29T13:00:26;9.07;;;3.67;;
72406;SDS011;60396;47.550;18.828;2023-01-29T13:05:53;10.85;;;4.07;;
72406;SDS011;60396;47.550;18.828;2023-01-29T13:08:28;9.83;;;4.27;;
72406;SDS011;60396;47.550;18.828;2023-01-29T13:10:59;8.52;;;3.28;;
72406;SDS011;60396;47.550;18.828;2023-01-29T13:16:22;10.10;;;4.25;;
72406;SDS011;60396;47.550;18.828;2023-01-29T13:18:54;9.63;;;3.97;;
72406;SDS011;60396;47.550;18.828;2023-01-29T13:21:30;8.63;;;3.73;;
72406;SDS011;60396;47.550;18.828;2023-01-29T13:24:02;9.75;;;4.28;;
72406;SDS011;60396;47.550;18.828;2023-01-29T13:26:31;10.18;;;4.25;;
72406;SDS011;60396;47.550;18.828;2023-01-29T13:29:00;9.02;;;3.85;;
72406;SDS011;60396;47.550;18.828;2023-01-29T13:31:30;9.20;;;4.10;;
72406;SDS011;60396;47.550;18.828;2023-01-29T13:36:33;9.15;;;3.78;;
72406;SDS011;60396;47.550;18.828;2023-01-29T13:39:04;9.80;;;4.53;;
72406;SDS011;60396;47.550;18.828;2023-01-29T13:41:35;9.90;;;3.70;;
72406;SDS011;60396;47.550;18.828;2023-01-29T13:44:07;8.80;;;3.83;;
72406;SDS011;60396;47.550;18.828;2023-01-29T13:46:48;7.80;;;3.50;;
72406;SDS011;60396;47.550;18.828;2023-01-29T13:49:28;10.00;;;4.25;;
72406;SDS011;60396;47.550;18.828;2023-01-29T13:51:58;10.27;;;4.35;;
72406;SDS011;60396;47.550;18.828;2023-01-29T13:55:00;9.90;;;3.85;;
72406;SDS011;60396;47.550;18.828;2023-01-29T13:57:51;10.10;;;4.25;;
72406;SDS011;60396;47.550;18.828;2023-01-29T14:10:32;8.95;;;4.03;;
72406;SDS011;60396;47.550;18.828;2023-01-29T14:15:44;10.90;;;4.47;;
72406;SDS011;60396;47.550;18.828;2023-01-29T14:18:26;10.93;;;5.10;;
72406;SDS011;60396;47.550;18.828;2023-01-29T14:20:55;12.07;;;5.45;;
72406;SDS011;60396;47.550;18.828;2023-01-29T14:25:59;12.73;;;5.23;;
72406;SDS011;60396;47.550;18.828;2023-01-29T14:28:31;10.20;;;4.55;;
72406;SDS011;60396;47.550;18.828;2023-01-29T14:31:00;10.45;;;4.15;;
72406;SDS011;60396;47.550;18.828;2023-01-29T14:33:32;10.23;;;4.68;;
72406;SDS011;60396;47.550;18.828;2023-01-29T14:36:03;11.45;;;4.90;;
72406;SDS011;60396;47.550;18.828;2023-01-29T14:38:38;10.80;;;4.90;;
72406;SDS011;60396;47.550;18.828;2023-01-29T14:41:20;12.52;;;5.55;;
72406;SDS011;60396;47.550;18.828;2023-01-29T14:47:01;13.30;;;6.07;;
72406;SDS011;60396;47.550;18.828;2023-01-29T14:49:50;11.15;;;5.55;;
72406;SDS011;60396;47.550;18.828;2023-01-29T14:52:20;13.37;;;5.97;;
72406;SDS011;60396;47.550;18.828;2023-01-29T14:54:52;12.20;;;5.82;;
72406;SDS011;60396;47.550;18.828;2023-01-29T14:57:20;14.30;;;6.12;;
72406;SDS011;60396;47.550;18.828;2023-01-29T14:59:56;11.35;;;5.90;;
72406;SDS011;60396;47.550;18.828;2023-01-29T15:02:28;11.48;;;5.28;;
72406;SDS011;60396;47.550;18.828;2023-01-29T15:05:31;14.47;;;6.23;;
72406;SDS011;60396;47.550;18.828;2023-01-29T15:10:41;11.63;;;5.18;;
72406;SDS011;60396;47.550;18.828;2023-01-29T15:13:46;13.65;;;6.12;;
72406;SDS011;60396;47.550;18.828;2023-01-29T15:16:16;12.37;;;5.60;;
72406;SDS011;60396;47.550;18.828;2023-01-29T15:18:46;14.03;;;6.07;;
72406;SDS011;60396;47.550;18.828;2023-01-29T15:21:16;13.15;;;5.85;;
72406;SDS011;60396;47.550;18.828;2023-01-29T15:23:45;13.60;;;6.12;;
72406;SDS011;60396;47.550;18.828;2023-01-29T15:26:17;12.48;;;5.90;;
72406;SDS011;60396;47.550;18.828;2023-01-29T15:28:56;14.10;;;6.65;;
72406;SDS011;60396;47.550;18.828;2023-01-29T15:31:31;13.47;;;6.23;;
72406;SDS011;60396;47.550;18.828;2023-01-29T15:34:01;13.90;;;6.55;;
72406;SDS011;60396;47.550;18.828;2023-01-29T15:36:32;14.80;;;6.35;;
72406;SDS011;60396;47.550;18.828;2023-01-29T15:41:50;13.60;;;6.10;;
72406;SDS011;60396;47.550;18.828;2023-01-29T15:44:21;14.70;;;6.60;;
72406;SDS011;60396;47.550;18.828;2023-01-29T15:46:56;12.60;;;6.10;;
72406;SDS011;60396;47.550;18.828;2023-01-29T15:49:29;13.05;;;6.45;;
72406;SDS011;60396;47.550;18.828;2023-01-29T15:52:33;14.43;;;6.10;;
72406;SDS011;60396;47.550;18.828;2023-01-29T15:54:55;11.68;;;5.78;;
72406;SDS011;60396;47.550;18.828;2023-01-29T15:57:24;13.20;;;6.20;;
72406;SDS011;60396;47.550;18.828;2023-01-29T15:59:56;13.85;;;6.57;;
72406;SDS011;60396;47.550;18.828;2023-01-29T16:05:21;14.43;;;6.62;;
72406;SDS011;60396;47.550;18.828;2023-01-29T16:07:52;14.60;;;7.12;;
72406;SDS011;60396;47.550;18.828;2023-01-29T16:10:23;15.87;;;7.27;;
72406;SDS011;60396;47.550;18.828;2023-01-29T16:12:53;14.45;;;6.68;;
72406;SDS011;60396;47.550;18.828;2023-01-29T16:15:34;16.12;;;7.22;;
72406;SDS011;60396;47.550;18.828;2023-01-29T16:18:18;16.65;;;7.65;;
72406;SDS011;60396;47.550;18.828;2023-01-29T16:20:54;16.45;;;6.60;;
72406;SDS011;60396;47.550;18.828;2023-01-29T16:23:25;12.27;;;6.30;;
72406;SDS011;60396;47.550;18.828;2023-01-29T16:25:55;14.98;;;6.90;;
72406;SDS011;60396;47.550;18.828;2023-01-29T16:28:28;13.75;;;6.95;;
72406;SDS011;60396;47.550;18.828;2023-01-29T16:30:57;15.40;;;7.07;;
72406;SDS011;60396;47.550;18.828;2023-01-29T16:33:32;14.25;;;6.90;;
72406;SDS011;60396;47.550;18.828;2023-01-29T16:36:03;14.90;;;6.47;;
72406;SDS011;60396;47.550;18.828;2023-01-29T16:38:39;17.40;;;7.68;;
72406;SDS011;60396;47.550;18.828;2023-01-29T16:41:15;14.70;;;7.53;;
72406;SDS011;60396;47.550;18.828;2023-01-29T16:43:59;14.30;;;7.12;;
72406;SDS011;60396;47.550;18.828;2023-01-29T16:46:33;16.95;;;7.60;;
72406;SDS011;60396;47.550;18.828;2023-01-29T16:52:14;16.73;;;7.62;;
72406;SDS011;60396;47.550;18.828;2023-01-29T16:54:50;14.77;;;7.07;;
72406;SDS011;60396;47.550;18.828;2023-01-29T16:57:23;12.68;;;6.57;;
72406;SDS011;60396;47.550;18.828;2023-01-29T16:59:53;14.48;;;7.18;;
72406;SDS011;60396;47.550;18.828;2023-01-29T17:02:33;13.53;;;6.50;;
72406;SDS011;60396;47.550;18.828;2023-01-29T17:05:05;14.57;;;6.93;;
72406;SDS011;60396;47.550;18.828;2023-01-29T17:07:43;15.63;;;7.65;;
72406;SDS011;60396;47.550;18.828;2023-01-29T17:10:15;16.80;;;8.02;;
72406;SDS011;60396;47.550;18.828;2023-01-29T17:12:49;16.42;;;7.68;;
72406;SDS011;60396;47.550;18.828;2023-01-29T17:15:31;16.37;;;7.87;;
72406;SDS011;60396;47.550;18.828;2023-01-29T17:18:00;16.20;;;7.68;;
72406;SDS011;60396;47.550;18.828;2023-01-29T17:20:29;15.68;;;7.57;;
72406;SDS011;60396;47.550;18.828;2023-01-29T17:22:57;16.15;;;8.15;;
72406;SDS011;60396;47.550;18.828;2023-01-29T17:25:25;16.25;;;7.95;;
72406;SDS011;60396;47.550;18.828;2023-01-29T17:27:54;18.83;;;8.33;;
72406;SDS011;60396;47.550;18.828;2023-01-29T17:30:22;18.05;;;8.80;;
72406;SDS011;60396;47.550;18.828;2023-01-29T17:32:53;16.80;;;8.15;;
72406;SDS011;60396;47.550;18.828;2023-01-29T17:35:21;15.98;;;7.57;;
72406;SDS011;60396;47.550;18.828;2023-01-29T17:37:49;17.00;;;8.60;;